Time;durP1;ratioP1;P1;durP2;ratioP2;P2;SDS_P1;SDS_P2;PMS_P1;PMS_P2;Temp;Humidity;BMP_temperature;BMP_pressure;BME280_temperature;BME280_humidity;BME280_pressure;Samples;Min_cycle;Max_cycle;Signal;HPM_P1;HPM_P2
2022/02/28 00:01:59;;;;;;;13.77;6.73;;;;;;;-1.05;100.00;100827.44;1578605;90;21555;-70
2022/02/28 00:04:26;;;;;;;12.07;6.17;;;;;;;-1.03;100.00;100830.02;1586193;90;21623;-70
2022/02/28 00:06:54;;;;;;;10.87;5.73;;;;;;;-1.03;100.00;100830.86;1589505;90;21083;-70
2022/02/28 00:09:21;;;;;;;13.30;6.03;;;;;;;-1.04;100.00;100829.64;1590103;90;21068;-69
2022/02/28 00:11:48;;;;;;;11.13;6.40;;;;;;;-1.03;100.00;100834.84;1589887;90;21140;-69
2022/02/28 00:14:15;;;;;;;12.67;6.77;;;;;;;-1.01;100.00;100832.12;1590098;90;21176;-69
2022/02/28 00:16:43;;;;;;;15.07;7.03;;;;;;;-1.02;100.00;100835.25;1569741;90;21580;-70
2022/02/28 00:19:12;;;;;;;11.60;6.07;;;;;;;-1.01;100.00;100834.33;1569508;90;21588;-71
2022/02/28 00:21:41;;;;;;;13.97;6.60;;;;;;;-0.98;100.00;100829.31;1589849;90;21091;-70
2022/02/28 00:24:08;;;;;;;12.33;6.30;;;;;;;-0.97;100.00;100826.59;1569655;90;21643;-70
2022/02/28 00:26:35;;;;;;;11.57;6.27;;;;;;;-0.93;100.00;100822.45;1569458;90;21182;-70
2022/02/28 00:29:04;;;;;;;12.43;6.53;;;;;;;-0.89;100.00;100818.70;1590136;90;21131;-69
2022/02/28 00:31:31;;;;;;;12.20;6.43;;;;;;;-0.85;100.00;100824.23;1569632;90;21129;-70
2022/02/28 00:33:59;;;;;;;10.40;6.10;;;;;;;-0.81;100.00;100818.70;1590088;90;21112;-70
2022/02/28 00:36:27;;;;;;;13.17;6.23;;;;;;;-0.78;100.00;100828.28;1590181;90;21662;-69
2022/02/28 00:38:54;;;;;;;9.63;6.03;;;;;;;-0.75;100.00;100825.48;1590082;90;21142;-69
2022/02/28 00:41:28;;;;;;;9.47;5.63;;;;;;;-0.72;100.00;100817.37;1590057;90;21149;-70
2022/02/28 00:43:56;;;;;;;11.70;6.30;;;;;;;-0.69;100.00;100815.89;1590041;90;21170;-70
2022/02/28 00:46:22;;;;;;;10.53;5.73;;;;;;;-0.67;100.00;100821.13;1584886;88;21102;-70
2022/02/28 00:48:50;;;;;;;13.00;6.10;;;;;;;-0.64;100.00;100820.94;1632495;88;21113;-70
2022/02/28 00:51:18;;;;;;;11.43;5.23;;;;;;;-0.62;100.00;100822.59;1632695;88;21097;-70
2022/02/28 00:53:46;;;;;;;11.40;5.60;;;;;;;-0.59;100.00;100822.41;1632600;87;21090;-70
2022/02/28 00:56:13;;;;;;;7.17;4.80;;;;;;;-0.56;100.00;100829.38;1634539;87;21045;-69
2022/02/28 00:58:41;;;;;;;10.30;5.27;;;;;;;-0.55;100.00;100828.42;1636503;87;21105;-69
2022/02/28 01:01:08;;;;;;;12.10;5.20;;;;;;;-0.55;100.00;100821.78;1632363;88;21515;-70
2022/02/28 01:03:36;;;;;;;7.80;4.70;;;;;;;-0.53;100.00;100823.03;1632746;87;21088;-69
2022/02/28 01:06:03;;;;;;;8.43;5.10;;;;;;;-0.53;100.00;100820.37;1632279;88;21061;-69
2022/02/28 01:08:30;;;;;;;9.07;5.20;;;;;;;-0.53;100.00;100825.23;1632409;87;21053;-69
2022/02/28 01:10:57;;;;;;;8.13;4.80;;;;;;;-0.53;100.00;100823.91;1628952;87;21017;-70
2022/02/28 01:13:24;;;;;;;8.70;5.23;;;;;;;-0.52;100.00;100817.64;1611306;89;21038;-69
2022/02/28 01:15:51;;;;;;;7.33;4.37;;;;;;;-0.51;100.00;100824.69;1631163;88;21053;-70
2022/02/28 01:18:18;;;;;;;9.83;4.93;;;;;;;-0.51;100.00;100821.14;1634505;88;21033;-69
2022/02/28 01:20:46;;;;;;;15.37;6.70;;;;;;;-0.50;100.00;100831.70;1632335;88;21081;-68
2022/02/28 01:23:13;;;;;;;24.07;9.63;;;;;;;-0.52;100.00;100830.92;1635259;87;21065;-69
2022/02/28 01:25:40;;;;;;;24.10;9.03;;;;;;;-0.51;100.00;100837.97;1634849;87;21073;-70
2022/02/28 01:28:07;;;;;;;18.20;7.13;;;;;;;-0.49;100.00;100843.20;1632356;87;21089;-70
2022/02/28 01:30:34;;;;;;;10.63;5.40;;;;;;;-0.49;100.00;100844.53;1632248;88;21090;-69
2022/02/28 01:33:01;;;;;;;10.03;5.80;;;;;;;-0.50;100.00;100841.47;1632509;88;21081;-70
2022/02/28 01:35:28;;;;;;;9.60;5.27;;;;;;;-0.49;100.00;100845.86;1626310;87;21066;-70
2022/02/28 01:37:56;;;;;;;8.77;5.07;;;;;;;-0.48;100.00;100846.23;1635685;87;21080;-71
2022/02/28 01:40:24;;;;;;;8.73;4.93;;;;;;;-0.48;100.00;100848.44;1633520;87;21149;-70
2022/02/28 01:42:51;;;;;;;10.80;5.10;;;;;;;-0.47;100.00;100845.30;1635802;87;21026;-69
2022/02/28 01:45:22;;;;;;;11.93;5.60;;;;;;;-0.50;100.00;100841.00;1635359;87;21053;-70
2022/02/28 01:47:55;;;;;;;8.97;5.40;;;;;;;-0.52;100.00;100844.20;1632705;87;21057;-70
2022/02/28 01:50:22;;;;;;;8.90;5.13;;;;;;;-0.53;100.00;100840.30;1632340;88;21065;-69
2022/02/28 01:52:49;;;;;;;10.10;5.70;;;;;;;-0.60;100.00;100841.96;1632286;88;21078;-70
2022/02/28 01:55:18;;;;;;;10.80;6.10;;;;;;;-0.63;100.00;100846.58;1632259;87;21556;-69
2022/02/28 01:57:45;;;;;;;10.93;5.80;;;;;;;-0.67;100.00;100846.36;1632478;87;21112;-69
2022/02/28 02:00:17;;;;;;;14.30;6.63;;;;;;;-0.71;100.00;100840.79;1632403;87;21013;-69
2022/02/28 02:02:44;;;;;;;12.93;6.35;;;;;;;-0.74;100.00;100843.15;1582978;89;21081;-70
2022/02/28 02:05:11;;;;;;;11.53;6.53;;;;;;;-0.74;100.00;100846.25;1582720;89;21010;-70
2022/02/28 02:07:39;;;;;;;12.17;6.40;;;;;;;-0.75;100.00;100847.20;1603125;88;21088;-70
2022/02/28 02:10:09;;;;;;;12.60;6.47;;;;;;;-0.79;100.00;100848.69;1603810;89;21577;-70
2022/02/28 02:12:38;;;;;;;13.30;6.47;;;;;;;-0.82;100.00;100850.16;1603630;89;21137;-69
2022/02/28 02:15:09;;;;;;;17.30;8.47;;;;;;;-0.86;100.00;100850.41;1603552;88;21013;-70
2022/02/28 02:17:37;;;;;;;13.30;6.90;;;;;;;-0.90;100.00;100853.70;1582840;89;21113;-71
2022/02/28 02:20:13;;;;;;;15.27;7.77;;;;;;;-0.94;100.00;100853.91;1603523;89;21072;-68
2022/02/28 02:23:05;;;;;;;12.90;6.80;;;;;;;-1.01;100.00;100853.36;1590178;89;21072;-70
2022/02/28 02:25:33;;;;;;;16.43;7.13;;;;;;;-1.04;100.00;100860.17;1572332;91;21103;-69
2022/02/28 02:28:00;;;;;;;12.20;6.47;;;;;;;-1.08;100.00;100851.95;1572322;91;21646;-70
2022/02/28 02:30:28;;;;;;;9.83;5.60;;;;;;;-1.13;100.00;100850.87;1572187;91;21038;-70
2022/02/28 02:32:55;;;;;;;14.63;6.67;;;;;;;-1.15;100.00;100853.59;1552216;91;21103;-70
2022/02/28 02:35:22;;;;;;;9.20;5.50;;;;;;;-1.16;100.00;100861.63;1572385;91;21071;-69
2022/02/28 02:37:49;;;;;;;10.37;6.13;;;;;;;-1.16;100.00;100849.69;1572504;91;21047;-70
2022/02/28 02:40:17;;;;;;;13.07;6.00;;;;;;;-1.18;100.00;100850.23;1552544;91;21026;-70
2022/02/28 02:42:44;;;;;;;9.77;5.90;;;;;;;-1.21;100.00;100844.59;1572350;91;21548;-69
2022/02/28 02:45:17;;;;;;;9.70;5.53;;;;;;;-1.23;100.00;100842.97;1572430;91;21572;-70
2022/02/28 02:47:45;;;;;;;18.23;7.67;;;;;;;-1.25;100.00;100841.70;1572338;91;21051;-69
2022/02/28 02:50:13;;;;;;;15.07;7.10;;;;;;;-1.29;100.00;100837.94;1552306;91;21560;-70
2022/02/28 02:52:47;;;;;;;13.27;7.10;;;;;;;-1.36;100.00;100836.94;1572313;91;21087;-70
2022/02/28 02:55:15;;;;;;;12.65;6.10;;;;;;;-1.39;100.00;100834.42;1572371;91;21078;-69
2022/02/28 02:57:42;;;;;;;10.93;6.17;;;;;;;-1.44;100.00;100828.48;1572234;91;21082;-69
2022/02/28 03:00:10;;;;;;;10.27;5.80;;;;;;;-1.51;100.00;100828.39;1564660;91;21091;-69
2022/02/28 03:02:42;;;;;;;;;;;;;;;-1.60;100.00;100819.08;1564676;92;21099;-70
2022/02/28 03:05:09;;;;;;;10.63;5.97;;;;;;;-1.70;100.00;100818.27;1562144;92;20115;-70
2022/02/28 03:07:37;;;;;;;10.70;6.10;;;;;;;-1.80;100.00;100829.33;1561969;92;21119;-70
2022/02/28 03:10:06;;;;;;;10.53;5.87;;;;;;;-1.88;100.00;100827.97;1562256;92;21113;-70
2022/02/28 03:12:34;;;;;;;10.53;5.87;;;;;;;-1.96;100.00;100821.23;1582139;89;21038;-70
2022/02/28 03:15:03;;;;;;;11.23;5.90;;;;;;;-2.01;100.00;100821.91;1606173;89;21118;-69
2022/02/28 03:17:30;;;;;;;11.90;5.67;;;;;;;-2.07;100.00;100816.03;1606040;89;21505;-69
2022/02/28 03:19:57;;;;;;;10.87;5.97;;;;;;;-2.14;100.00;100816.33;1606121;89;21045;-70
2022/02/28 03:22:24;;;;;;;12.10;6.20;;;;;;;-2.19;100.00;100817.00;1619911;87;21100;-70
2022/02/28 03:24:51;;;;;;;11.17;5.93;;;;;;;-2.24;100.00;100812.38;1632133;87;21120;-69
2022/02/28 03:27:18;;;;;;;11.53;5.90;;;;;;;-2.31;100.00;100809.62;1634374;87;21589;-69
2022/02/28 03:29:47;;;;;;;11.43;6.00;;;;;;;-2.34;100.00;100801.80;1633800;87;21060;-68
2022/02/28 03:32:15;;;;;;;11.63;5.93;;;;;;;-2.39;100.00;100798.50;1632376;88;21041;-70
2022/02/28 03:34:42;;;;;;;14.17;6.53;;;;;;;-2.43;100.00;100803.08;1632425;88;21045;-70
2022/02/28 03:37:09;;;;;;;14.70;7.13;;;;;;;-2.47;100.00;100800.18;1632315;87;21049;-70
2022/02/28 03:39:36;;;;;;;13.60;6.90;;;;;;;-2.51;100.00;100798.14;1632377;88;21109;-70
2022/02/28 03:42:04;;;;;;;11.83;6.37;;;;;;;-2.55;100.00;100791.27;1633141;87;21061;-69
2022/02/28 03:44:31;;;;;;;12.80;5.70;;;;;;;-2.60;100.00;100789.28;1632853;87;21570;-69
2022/02/28 03:47:01;;;;;;;15.90;6.40;;;;;;;-2.65;100.00;100786.45;1632440;87;21005;-69
2022/02/28 03:49:30;;;;;;;18.00;5.97;;;;;;;-2.68;100.00;100787.44;1633119;87;21081;-69
2022/02/28 03:52:03;;;;;;;11.18;5.87;;;;;;;-2.70;100.00;100785.33;1633575;87;21042;-69
2022/02/28 03:54:32;;;;;;;11.20;5.63;;;;;;;-2.74;100.00;100777.98;1632303;87;21049;-68
2022/02/28 03:56:59;;;;;;;9.40;5.67;;;;;;;-2.75;100.00;100768.78;1633905;87;21037;-68
2022/02/28 03:59:26;;;;;;;12.37;6.27;;;;;;;-2.77;100.00;100733.58;1632217;88;21542;-69
2022/02/28 04:01:53;;;;;;;11.00;5.73;;;;;;;-2.80;100.00;100732.39;1632415;88;21069;-69
2022/02/28 04:04:22;;;;;;;10.47;5.87;;;;;;;-2.83;100.00;100721.92;1574426;91;21099;-68
2022/02/28 04:06:49;;;;;;;10.53;5.93;;;;;;;-2.86;100.00;100726.44;1574607;91;21097;-70
2022/02/28 04:09:23;;;;;;;12.23;6.13;;;;;;;-2.86;100.00;100741.47;1574399;91;21066;-69
2022/02/28 04:11:50;;;;;;;12.37;6.53;;;;;;;-2.90;100.00;100734.60;1574715;91;21625;-69
2022/02/28 04:14:18;;;;;;;10.53;5.67;;;;;;;-2.93;100.00;100734.73;1574498;91;21070;-70
2022/02/28 04:16:45;;;;;;;10.53;5.83;;;;;;;-2.94;100.00;100735.64;1574521;91;21456;-69
2022/02/28 04:19:16;;;;;;;13.00;6.67;;;;;;;-2.96;100.00;100735.70;1574684;91;21050;-70
2022/02/28 04:21:45;;;;;;;11.10;5.77;;;;;;;-2.99;100.00;100734.55;1574741;91;21757;-70
2022/02/28 04:24:14;;;;;;;14.27;5.90;;;;;;;-3.00;100.00;100734.13;1574508;91;21038;-70
2022/02/28 04:26:44;;;;;;;14.13;6.13;;;;;;;-3.01;100.00;100723.17;1574642;91;21077;-69
2022/02/28 04:29:12;;;;;;;12.17;5.87;;;;;;;-3.00;100.00;100729.31;1574538;91;21106;-70
2022/02/28 04:31:40;;;;;;;9.83;5.33;;;;;;;-3.01;100.00;100732.88;1574649;90;21042;-69
2022/02/28 04:34:07;;;;;;;12.50;5.90;;;;;;;-3.03;100.00;100723.67;1574570;91;21110;-69
2022/02/28 04:36:34;;;;;;;10.57;5.00;;;;;;;-3.03;100.00;100718.38;1574623;91;21034;-70
2022/02/28 04:39:01;;;;;;;12.73;5.50;;;;;;;-3.02;100.00;100721.91;1574591;91;21095;-69
2022/02/28 04:41:30;;;;;;;11.53;5.60;;;;;;;-3.03;100.00;100720.17;1574648;91;21126;-70
2022/02/28 04:43:57;;;;;;;20.17;7.40;;;;;;;-3.04;100.00;100723.30;1574247;91;21582;-70
2022/02/28 04:46:26;;;;;;;14.20;6.30;;;;;;;-3.04;100.00;100721.13;1574651;91;21650;-68
2022/02/28 04:48:53;;;;;;;12.03;6.47;;;;;;;-3.05;100.00;100725.53;1574500;91;21121;-71
2022/02/28 04:51:34;;;;;;;14.97;6.03;;;;;;;-3.03;100.00;100724.15;1571810;91;21154;-70
2022/02/28 04:54:02;;;;;;;12.73;6.10;;;;;;;-3.02;100.00;100726.73;1574572;91;21603;-70
2022/02/28 04:56:30;;;;;;;14.20;6.33;;;;;;;-3.01;100.00;100725.81;1574644;91;21138;-69
2022/02/28 04:58:57;;;;;;;12.97;5.93;;;;;;;-3.00;100.00;100720.91;1574394;91;21126;-71
2022/02/28 05:01:29;;;;;;;16.20;6.13;;;;;;;-2.98;100.00;100719.52;1611264;87;21542;-70
2022/02/28 05:03:57;;;;;;;10.83;5.70;;;;;;;-2.95;100.00;100719.39;1632423;88;21037;-70
2022/02/28 05:06:26;;;;;;;14.53;7.10;;;;;;;-2.82;100.00;100724.52;1634714;85;21046;-70
2022/02/28 05:08:53;;;;;;;21.33;8.70;;;;;;;-2.69;100.00;100717.75;1632348;88;21045;-71
2022/02/28 05:11:21;;;;;;;22.53;9.90;;;;;;;-2.56;100.00;100715.86;1632325;87;21102;-69
2022/02/28 05:13:50;;;;;;;14.93;6.47;;;;;;;-2.40;100.00;100719.98;1632409;88;21026;-71
2022/02/28 05:16:18;;;;;;;16.53;6.83;;;;;;;-2.14;100.00;100710.81;1632327;87;21061;-70
2022/02/28 05:18:46;;;;;;;15.47;6.50;;;;;;;-1.85;100.00;100708.05;1632220;88;21530;-68
2022/02/28 05:21:14;;;;;;;14.07;6.10;;;;;;;-1.76;100.00;100710.25;1632367;87;21129;-69
2022/02/28 05:23:42;;;;;;;14.27;6.60;;;;;;;-1.84;100.00;100723.05;1632138;87;21058;-70
2022/02/28 05:26:09;;;;;;;14.67;6.30;;;;;;;-1.96;100.00;100726.29;1632242;88;21137;-69
2022/02/28 05:28:36;;;;;;;12.20;6.43;;;;;;;-2.05;100.00;100732.89;1635700;87;21096;-69
2022/02/28 05:31:03;;;;;;;26.37;8.33;;;;;;;-2.10;100.00;100737.55;1641010;87;21026;-69
2022/02/28 05:33:31;;;;;;;17.10;6.93;;;;;;;-2.12;100.00;100736.77;1635806;87;21049;-70
2022/02/28 05:35:58;;;;;;;13.97;6.27;;;;;;;-2.13;100.00;100737.69;1639333;87;21088;-69
2022/02/28 05:38:33;;;;;;;16.50;6.30;;;;;;;-2.16;100.00;100747.09;1594240;89;21091;-69
2022/02/28 05:41:02;;;;;;;15.47;7.10;;;;;;;-2.15;100.00;100740.88;1594265;88;21074;-71
2022/02/28 05:43:31;;;;;;;13.80;7.07;;;;;;;-2.15;100.00;100752.80;1594141;90;21071;-71
2022/02/28 05:45:59;;;;;;;18.57;7.93;;;;;;;-2.16;100.00;100755.92;1594218;90;21058;-70
2022/02/28 05:48:31;;;;;;;16.60;6.83;;;;;;;-2.11;100.00;100757.02;1593954;90;21095;-70
2022/02/28 05:50:58;;;;;;;18.67;7.63;;;;;;;-2.05;100.00;100752.77;1594149;90;21138;-71
2022/02/28 05:53:25;;;;;;;19.90;7.77;;;;;;;-2.03;100.00;100760.65;1594122;90;21119;-71
2022/02/28 05:55:52;;;;;;;19.60;8.00;;;;;;;-1.97;100.00;100758.54;1594147;90;21142;-70
2022/02/28 05:58:20;;;;;;;19.47;8.30;;;;;;;-1.89;100.00;100757.31;1594070;90;21114;-71
2022/02/28 06:00:48;;;;;;;27.30;11.93;;;;;;;-1.81;100.00;100759.98;1592469;90;21083;-70
2022/02/28 06:03:15;;;;;;;26.43;15.03;;;;;;;-1.69;100.00;100761.19;1593048;90;21110;-71
2022/02/28 06:05:42;;;;;;;19.10;8.90;;;;;;;-1.60;100.00;100762.06;1594182;90;21098;-70
2022/02/28 06:08:09;;;;;;;22.93;11.20;;;;;;;-1.50;100.00;100762.95;1594160;90;21591;-71
2022/02/28 06:10:36;;;;;;;22.53;12.77;;;;;;;-1.40;100.00;100770.82;1594295;90;21102;-70
2022/02/28 06:13:03;;;;;;;31.27;14.93;;;;;;;-1.29;100.00;100768.95;1593286;90;21659;-70
2022/02/28 06:15:30;;;;;;;21.30;9.50;;;;;;;-1.17;100.00;100770.98;1594149;90;21082;-71
2022/02/28 06:17:59;;;;;;;18.37;10.23;;;;;;;-1.07;100.00;100774.89;1593159;90;21539;-71
2022/02/28 06:20:27;;;;;;;17.63;8.47;;;;;;;-0.97;100.00;100777.47;1594390;90;21106;-70
2022/02/28 06:22:54;;;;;;;18.10;8.03;;;;;;;-0.86;100.00;100788.02;1593226;90;21051;-70
2022/02/28 06:25:21;;;;;;;19.00;8.53;;;;;;;-0.77;100.00;100791.52;1593412;90;21054;-70
2022/02/28 06:27:48;;;;;;;16.77;9.60;;;;;;;-0.70;100.00;100796.89;1594373;90;21093;-71
2022/02/28 06:30:17;;;;;;;20.17;9.37;;;;;;;-0.61;100.00;100803.05;1592915;89;21075;-70
2022/02/28 06:32:44;;;;;;;18.03;7.43;;;;;;;-0.50;100.00;100815.75;1594326;90;21115;-71
2022/02/28 06:35:11;;;;;;;48.47;30.07;;;;;;;-0.40;100.00;100812.16;1615747;87;21077;-71
2022/02/28 06:37:38;;;;;;;29.93;14.63;;;;;;;-0.28;100.00;100811.50;1628169;87;21065;-70
2022/02/28 06:40:07;;;;;;;23.83;10.87;;;;;;;-0.14;100.00;100816.07;1630718;88;21205;-66
2022/02/28 06:42:36;;;;;;;20.17;9.10;;;;;;;-0.01;100.00;100813.59;1632530;87;21558;-69
2022/02/28 06:45:05;;;;;;;17.37;8.87;;;;;;;0.15;100.00;100826.90;1632408;88;21010;-70
2022/02/28 06:47:32;;;;;;;18.07;9.07;;;;;;;0.27;100.00;100822.23;1632524;87;21574;-70
2022/02/28 06:50:05;;;;;;;26.47;20.47;;;;;;;0.45;100.00;100828.80;1632665;88;21082;-69
2022/02/28 06:52:33;;;;;;;19.80;8.60;;;;;;;0.56;100.00;100823.70;1631379;87;21077;-70
2022/02/28 06:55:00;;;;;;;19.17;8.20;;;;;;;0.66;100.00;100826.23;1639586;87;21025;-69
2022/02/28 06:57:27;;;;;;;17.17;7.77;;;;;;;0.72;100.00;100836.52;1636679;87;21098;-69
2022/02/28 06:59:54;;;;;;;20.53;7.73;;;;;;;0.80;100.00;100841.87;1637722;87;21069;-68
2022/02/28 07:02:21;;;;;;;15.03;7.47;;;;;;;0.90;100.00;100836.40;1634111;85;21065;-70
2022/02/28 07:04:50;;;;;;;17.10;7.40;;;;;;;0.99;100.00;100839.84;1638437;87;21080;-70
2022/02/28 07:07:18;;;;;;;14.00;7.13;;;;;;;1.08;100.00;100845.98;1633659;87;21540;-70
2022/02/28 07:09:46;;;;;;;34.37;17.30;;;;;;;1.20;100.00;100850.20;1632521;87;21082;-71
2022/02/28 07:12:13;;;;;;;20.83;11.17;;;;;;;1.29;100.00;100841.65;1602823;88;21066;-72
2022/02/28 07:14:39;;;;;;;19.33;9.37;;;;;;;1.38;100.00;100853.56;1598289;89;21559;-71
2022/02/28 07:17:07;;;;;;;19.80;7.23;;;;;;;1.48;100.00;100848.92;1614231;89;21173;-70
2022/02/28 07:19:34;;;;;;;12.00;5.70;;;;;;;1.65;100.00;100844.39;1619456;88;21075;-72
2022/02/28 07:22:01;;;;;;;14.20;6.43;;;;;;;1.74;100.00;100849.15;1619085;88;21068;-70
2022/02/28 07:24:29;;;;;;;18.17;8.47;;;;;;;1.74;100.00;100860.30;1607573;87;21155;-72
2022/02/28 07:26:56;;;;;;;17.53;8.23;;;;;;;1.85;100.00;100858.66;1644241;86;21148;-72
2022/02/28 07:29:43;;;;;;;17.50;8.97;;;;;;;2.05;100.00;100852.56;1616265;86;21196;-71
2022/02/28 07:36:09;;;;;;;15.40;7.47;;;;;;;2.45;100.00;100854.04;1630523;86;21038;-72
2022/02/28 07:38:39;;;;;;;23.07;9.77;;;;;;;2.50;100.00;100872.41;1605638;89;21129;-73
2022/02/28 07:41:07;;;;;;;18.47;8.33;;;;;;;2.56;100.00;100870.21;1636587;87;21010;-70
2022/02/28 07:43:35;;;;;;;21.73;11.40;;;;;;;2.67;100.00;100884.20;1628523;86;21078;-72
2022/02/28 07:46:02;;;;;;;16.27;7.57;;;;;;;2.80;100.00;100883.80;1652290;85;21079;-71
2022/02/28 07:48:29;;;;;;;15.83;7.40;;;;;;;2.96;100.00;100888.14;1667478;85;21538;-70
2022/02/28 07:50:56;;;;;;;16.23;8.57;;;;;;;2.98;100.00;100888.41;1654833;85;21366;-70
2022/02/28 08:13:11;;;;;;;24.67;14.00;;;;;;;3.36;100.00;100896.99;1652977;86;21544;-71
2022/02/28 08:15:39;;;;;;;22.33;12.77;;;;;;;3.69;100.00;100890.81;1642767;85;21033;-70
2022/02/28 08:18:08;;;;;;;16.27;7.93;;;;;;;3.98;100.00;100884.75;1675534;85;21072;-72
2022/02/28 08:20:37;;;;;;;19.27;9.70;;;;;;;4.09;100.00;100894.23;1641935;86;21717;-71
2022/02/28 08:23:05;;;;;;;24.13;12.37;;;;;;;4.10;100.00;100898.61;1667585;86;21062;-70
2022/02/28 08:25:33;;;;;;;19.00;9.03;;;;;;;4.18;100.00;100902.09;1667277;86;21022;-70
2022/02/28 08:28:00;;;;;;;46.87;24.60;;;;;;;4.25;100.00;100903.38;1639730;86;21104;-70
2022/02/28 08:30:27;;;;;;;16.87;8.13;;;;;;;4.27;100.00;100910.81;1666466;86;21129;-71
2022/02/28 08:32:54;;;;;;;14.03;6.60;;;;;;;4.32;100.00;100903.77;1666649;86;21077;-68
2022/02/28 08:35:21;;;;;;;12.70;6.63;;;;;;;4.33;100.00;100919.73;1662896;86;21038;-71
2022/02/28 08:37:48;;;;;;;14.93;7.00;;;;;;;4.23;100.00;100925.84;1649900;85;21103;-71
2022/02/28 08:40:16;;;;;;;17.87;8.07;;;;;;;4.03;100.00;100929.44;1650206;87;21154;-73
2022/02/28 08:42:43;;;;;;;13.43;6.47;;;;;;;3.82;100.00;100929.59;1651570;87;21067;-71
2022/02/28 08:45:10;;;;;;;22.20;9.13;;;;;;;3.64;100.00;100927.70;1632909;87;21019;-70
2022/02/28 08:47:37;;;;;;;15.37;6.43;;;;;;;3.47;100.00;100932.84;1641486;84;21575;-72
2022/02/28 08:50:07;;;;;;;16.47;6.90;;;;;;;3.25;100.00;100932.95;1647510;86;21026;-70
2022/02/28 08:52:41;;;;;;;12.73;5.83;;;;;;;2.93;100.00;100933.27;1665530;85;21069;-70
2022/02/28 08:55:09;;;;;;;24.17;10.43;;;;;;;2.75;100.00;100925.13;1653154;84;21076;-69
2022/02/28 08:57:37;;;;;;;20.63;9.77;;;;;;;2.63;100.00;100920.92;1696092;85;21026;-70
2022/02/28 09:00:06;;;;;;;16.43;7.30;;;;;;;2.64;100.00;100917.80;1695381;85;21046;-69
2022/02/28 09:02:33;;;;;;;15.97;7.10;;;;;;;2.65;100.00;100915.00;1667364;85;21626;-68
2022/02/28 09:05:01;;;;;;;18.00;8.40;;;;;;;2.71;100.00;100915.11;1694733;85;21046;-69
2022/02/28 09:07:29;;;;;;;14.20;6.33;;;;;;;2.72;100.00;100918.63;1695824;85;21194;-70
2022/02/28 09:09:57;;;;;;;13.20;6.47;;;;;;;2.74;100.00;100913.55;1667450;85;21097;-70
2022/02/28 09:12:24;;;;;;;17.17;5.90;;;;;;;2.76;100.00;100904.11;1694862;84;21105;-70
2022/02/28 09:14:51;;;;;;;12.47;6.30;;;;;;;2.77;100.00;100904.02;1664764;85;21041;-70
2022/02/28 09:17:18;;;;;;;13.50;6.83;;;;;;;2.66;100.00;100898.04;1649452;85;21005;-68
2022/02/28 09:19:45;;;;;;;16.23;7.00;;;;;;;2.61;100.00;100901.97;1667757;85;21034;-70
2022/02/28 09:22:12;;;;;;;16.87;7.53;;;;;;;2.55;100.00;100900.55;1641598;85;21064;-70
2022/02/28 09:24:39;;;;;;;20.17;9.03;;;;;;;2.40;100.00;100895.70;1670081;85;21050;-70
2022/02/28 09:27:07;;;;;;;19.07;7.80;;;;;;;2.23;100.00;100899.45;1673968;85;21572;-69
2022/02/28 09:29:34;;;;;;;17.20;8.30;;;;;;;2.06;100.00;100901.83;1669678;85;21069;-71
2022/02/28 09:32:03;;;;;;;14.93;6.50;;;;;;;2.02;100.00;100891.43;1672431;85;21032;-70
2022/02/28 09:34:30;;;;;;;19.53;8.40;;;;;;;2.03;100.00;100886.48;1671660;85;21504;-69
2022/02/28 09:36:57;;;;;;;23.43;7.53;;;;;;;1.94;100.00;100886.58;1638621;86;21045;-70
2022/02/28 09:39:24;;;;;;;17.80;7.83;;;;;;;1.88;100.00;100885.16;1659937;86;21034;-70
2022/02/28 09:42:10;;;;;;;16.10;7.17;;;;;;;1.82;100.00;100882.00;1660991;84;21531;-71
2022/02/28 09:44:48;;;;;;;12.97;6.73;;;;;;;1.73;100.00;100879.91;1634409;86;21078;-70
2022/02/28 09:47:33;;;;;;;15.07;7.17;;;;;;;1.64;100.00;100874.17;1615505;86;21046;-71
2022/02/28 09:50:18;;;;;;;16.50;7.67;;;;;;;1.66;100.00;100872.27;1597407;88;22192;-70
2022/02/28 09:53:06;;;;;;;15.10;6.70;;;;;;;1.71;100.00;100864.00;1620151;86;21052;-73
2022/02/28 09:55:53;;;;;;;18.13;7.40;;;;;;;1.73;100.00;100866.57;1573865;90;21084;-70
2022/02/28 09:58:29;;;;;;;17.67;7.00;;;;;;;1.76;100.00;100869.91;1563452;90;21054;-67
2022/02/28 10:00:58;;;;;;;14.43;6.97;;;;;;;1.87;100.00;100861.24;1572604;90;21057;-71
2022/02/28 10:03:26;;;;;;;11.60;5.67;;;;;;;1.93;100.00;100865.33;1573819;90;21103;-70
2022/02/28 10:05:59;;;;;;;13.37;6.40;;;;;;;1.99;100.00;100871.15;1573605;90;21245;-65
2022/02/28 10:08:23;;;;;;;12.40;5.73;;;;;;;2.05;100.00;100868.12;1510666;93;21030;-70
2022/02/28 10:10:50;;;;;;;10.10;5.47;;;;;;;2.00;100.00;100872.00;1572437;89;21018;-71
2022/02/28 10:13:32;;;;;;;12.03;6.27;;;;;;;1.88;100.00;100866.48;1576035;90;21118;-70
2022/02/28 10:16:01;;;;;;;16.00;6.97;;;;;;;1.78;100.00;100866.66;1576898;90;21105;-65
2022/02/28 10:18:37;;;;;;;15.97;6.93;;;;;;;1.68;100.00;100862.39;1514507;91;21103;-66
2022/02/28 10:21:04;;;;;;;12.67;6.03;;;;;;;1.62;100.00;100860.56;1557226;90;21086;-66
2022/02/28 10:23:31;;;;;;;13.23;6.40;;;;;;;1.69;100.00;100858.75;1585044;89;21087;-65
2022/02/28 10:26:12;;;;;;;10.77;6.27;;;;;;;1.68;100.00;100859.72;1549416;90;21632;-69
2022/02/28 10:29:07;;;;;;;12.90;5.90;;;;;;;1.69;100.00;100860.57;1571547;90;21085;-70
2022/02/28 10:31:59;;;;;;;11.13;5.90;;;;;;;1.59;100.00;100862.08;1582898;90;21083;-70
2022/02/28 10:37:48;;;;;;;11.77;5.80;;;;;;;1.36;100.00;100863.46;1573887;90;20154;-69
2022/02/28 10:40:15;;;;;;;12.00;6.20;;;;;;;1.20;100.00;100859.03;1577392;90;21170;-69
2022/02/28 10:42:46;;;;;;;14.70;6.03;;;;;;;1.16;100.00;100860.66;1554921;90;21092;-69
2022/02/28 10:45:21;;;;;;;11.07;5.80;;;;;;;1.19;100.00;100858.67;1578880;90;22311;-71
2022/02/28 10:47:49;;;;;;;14.20;6.40;;;;;;;1.27;100.00;100851.06;1585786;90;21546;-69
2022/02/28 10:50:39;;;;;;;13.67;6.17;;;;;;;1.24;100.00;100859.71;1610105;87;21161;-69
2022/02/28 10:53:15;;;;;;;11.07;5.97;;;;;;;1.20;100.00;100847.05;1635738;86;21041;-69
2022/02/28 10:55:42;;;;;;;12.40;6.20;;;;;;;1.22;100.00;100839.84;1564740;90;21140;-71
2022/02/28 10:58:13;;;;;;;12.67;6.23;;;;;;;1.23;100.00;100838.88;1559390;89;21057;-71
2022/02/28 11:00:58;;;;;;;16.30;8.37;;;;;;;1.26;100.00;100840.04;1543245;91;21553;-70
2022/02/28 11:03:28;;;;;;;18.67;8.00;;;;;;;1.29;100.00;100836.31;1555818;89;21570;-69
2022/02/28 11:05:57;;;;;;;11.53;6.50;;;;;;;1.26;100.00;100842.70;1530905;90;21715;-69
2022/02/28 11:08:30;;;;;;;17.00;5.97;;;;;;;1.25;100.00;100841.45;1548895;91;21107;-69
2022/02/28 11:11:02;;;;;;;9.23;5.17;;;;;;;1.24;100.00;100841.94;1500806;91;21087;-71
2022/02/28 11:13:31;;;;;;;12.13;6.23;;;;;;;1.22;100.00;100835.86;1563563;90;21610;-69
2022/02/28 11:15:58;;;;;;;13.47;5.93;;;;;;;1.16;100.00;100835.36;1541732;91;21578;-70
2022/02/28 11:18:26;;;;;;;11.60;5.77;;;;;;;1.13;100.00;100823.05;1474871;94;21170;-69
2022/02/28 11:20:56;;;;;;;13.73;7.80;;;;;;;1.20;100.00;100824.41;1564621;87;21060;-69
2022/02/28 11:23:23;;;;;;;34.17;10.07;;;;;;;1.18;100.00;100824.97;1561895;90;21082;-68
2022/02/28 11:25:50;;;;;;;14.83;7.37;;;;;;;1.18;100.00;100819.65;1572174;88;21077;-69
2022/02/28 11:28:17;;;;;;;11.27;6.03;;;;;;;1.21;100.00;100827.95;1571370;87;21117;-69
2022/02/28 11:30:44;;;;;;;12.67;5.73;;;;;;;1.25;100.00;100818.81;1594973;87;21649;-70
2022/02/28 11:33:14;;;;;;;14.00;6.60;;;;;;;1.19;100.00;100828.03;1574830;88;21511;-69
2022/02/28 11:35:54;;;;;;;14.30;6.30;;;;;;;1.13;100.00;100829.27;1599345;88;21453;-69
2022/02/28 11:38:28;;;;;;;13.73;6.60;;;;;;;1.12;100.00;100824.88;1546600;89;21148;-70
2022/02/28 11:41:04;;;;;;;11.25;5.47;;;;;;;1.13;100.00;100815.06;1556318;89;21281;-70
2022/02/28 11:43:41;;;;;;;13.27;5.63;;;;;;;1.09;100.00;100818.39;1542835;90;21124;-70
2022/02/28 11:46:12;;;;;;;11.80;6.27;;;;;;;1.08;100.00;100822.02;1556641;88;21626;-69
2022/02/28 11:48:46;;;;;;;23.13;8.70;;;;;;;1.09;100.00;100809.55;1541782;90;21077;-69